createdAt,value
2018-07-12T00:00:24.814Z,11.90
2018-07-12T00:02:51.986Z,11.63
2018-07-12T00:05:19.233Z,17.20
2018-07-12T00:07:46.417Z,13.23
2018-07-12T00:10:13.619Z,11.93
2018-07-12T00:12:40.826Z,12.57
2018-07-12T00:15:08.007Z,14.10
2018-07-12T00:17:36.154Z,12.97
2018-07-12T00:20:03.323Z,13.80
2018-07-12T00:22:30.517Z,12.07
2018-07-12T00:24:58.905Z,15.40
2018-07-12T00:27:26.389Z,15.83
2018-07-12T00:29:53.557Z,17.40
2018-07-12T00:32:20.753Z,14.43
2018-07-12T00:34:47.930Z,16.07
2018-07-12T00:37:15.130Z,14.33
2018-07-12T00:39:43.233Z,21.20
2018-07-12T00:42:10.437Z,15.17
2018-07-12T00:44:37.631Z,15.40
2018-07-12T00:47:04.842Z,17.63
2018-07-12T00:49:32.015Z,14.47
2018-07-12T00:51:59.218Z,13.60
2018-07-12T00:54:26.387Z,14.30
2018-07-12T00:56:53.581Z,14.63
2018-07-12T00:59:20.765Z,16.90
2018-07-12T01:01:48.010Z,25.47
2018-07-12T01:04:16.088Z,15.37
2018-07-12T01:06:43.269Z,18.30
2018-07-12T01:09:10.473Z,19.47
2018-07-12T01:11:37.647Z,14.57
2018-07-12T01:14:05.805Z,15.90
2018-07-12T01:16:33.005Z,16.23
2018-07-12T01:19:00.209Z,19.60
2018-07-12T01:21:27.395Z,15.97
2018-07-12T01:23:54.596Z,15.63
2018-07-12T01:26:21.762Z,15.20
2018-07-12T01:28:48.993Z,15.10
2018-07-12T01:31:16.170Z,22.37
2018-07-12T01:33:44.346Z,18.80
2018-07-12T01:36:11.628Z,27.23
2018-07-12T01:38:38.753Z,18.60
2018-07-12T01:41:06.092Z,18.20
2018-07-12T01:43:33.489Z,16.80
2018-07-12T01:46:00.686Z,20.90
2018-07-12T01:48:27.994Z,16.43
2018-07-12T01:50:55.243Z,14.83
2018-07-12T01:53:22.457Z,17.90
2018-07-12T01:55:50.521Z,16.60
2018-07-12T01:58:17.742Z,17.13
2018-07-12T02:00:45.249Z,20.60
2018-07-12T02:03:12.489Z,16.97
2018-07-12T02:05:39.662Z,18.20
2018-07-12T02:08:06.840Z,17.97
2018-07-12T02:10:34.046Z,19.60
2018-07-12T02:13:01.310Z,19.87
2018-07-12T02:15:30.701Z,32.73
2018-07-12T02:17:57.940Z,22.10
2018-07-12T02:20:25.178Z,19.63
2018-07-12T02:22:52.639Z,22.00
2018-07-12T02:25:19.838Z,21.63
2018-07-12T02:27:47.014Z,32.67
2018-07-12T02:30:14.224Z,18.40
2018-07-12T02:32:41.402Z,19.60
2018-07-12T02:35:08.653Z,19.63
2018-07-12T02:37:35.794Z,16.00
2018-07-12T02:40:02.997Z,21.33
2018-07-12T02:42:30.170Z,21.60
2018-07-12T02:44:58.326Z,24.90
2018-07-12T02:47:25.616Z,17.00
2018-07-12T02:49:52.830Z,23.10
2018-07-12T02:52:20.006Z,26.83
2018-07-12T02:54:47.206Z,17.00
2018-07-12T02:57:14.381Z,19.47
2018-07-12T02:59:41.562Z,21.75
2018-07-12T03:02:08.757Z,25.03
2018-07-12T03:04:35.941Z,22.80
2018-07-12T03:07:03.149Z,15.97
2018-07-12T03:09:30.322Z,21.23
2018-07-12T03:11:58.513Z,19.60
2018-07-12T03:14:25.695Z,16.50
2018-07-12T03:16:52.906Z,22.60
2018-07-12T03:19:20.078Z,18.97
2018-07-12T03:21:47.288Z,15.30
2018-07-12T03:24:14.459Z,24.57
2018-07-12T03:26:41.662Z,18.17
2018-07-12T03:29:08.829Z,17.33
2018-07-12T03:31:37.976Z,21.93
2018-07-12T03:34:05.153Z,20.30
2018-07-12T03:36:32.349Z,22.80
2018-07-12T03:38:59.527Z,18.90
2018-07-12T03:41:26.726Z,22.10
2018-07-12T03:43:53.897Z,17.17
2018-07-12T03:46:22.094Z,19.60
2018-07-12T03:48:49.297Z,18.10
2018-07-12T03:51:16.517Z,20.80
2018-07-12T03:53:43.693Z,25.07
2018-07-12T03:56:10.861Z,20.20
2018-07-12T03:58:38.063Z,22.37
2018-07-12T04:01:05.231Z,17.47
2018-07-12T04:03:32.432Z,20.60
2018-07-12T04:05:59.614Z,17.67
2018-07-12T04:08:26.809Z,19.97
2018-07-12T04:10:54.030Z,16.27
2018-07-12T04:13:21.193Z,20.10
2018-07-12T04:15:48.373Z,23.17
2018-07-12T04:18:15.569Z,18.67
2018-07-12T04:20:42.737Z,17.03
2018-07-12T04:23:09.945Z,18.27
2018-07-12T04:25:37.116Z,24.90
2018-07-12T04:28:04.316Z,14.70
2018-07-12T04:30:31.485Z,15.77
2018-07-12T04:32:58.682Z,14.90
2018-07-12T04:35:26.806Z,14.43
2018-07-12T04:37:54.005Z,15.07
2018-07-12T04:40:21.181Z,17.13
2018-07-12T04:42:48.380Z,17.47
2018-07-12T04:45:15.554Z,15.50
2018-07-12T04:47:42.717Z,14.37
2018-07-12T04:50:10.849Z,13.20
2018-07-12T04:52:38.030Z,13.70
2018-07-12T04:55:05.233Z,14.47
2018-07-12T04:57:32.410Z,12.00
2018-07-12T05:00:00.603Z,15.40
2018-07-12T05:02:27.805Z,13.17
2018-07-12T05:04:55.998Z,14.17
2018-07-12T05:07:23.173Z,12.30
2018-07-12T05:09:50.365Z,15.80
2018-07-12T05:12:17.543Z,12.10
2018-07-12T05:14:44.737Z,11.03
2018-07-12T05:17:11.905Z,11.30
2018-07-12T05:19:39.114Z,11.07
2018-07-12T05:22:06.300Z,16.00
2018-07-12T05:24:33.489Z,9.63
2018-07-12T05:27:00.669Z,9.87
2018-07-12T05:29:27.877Z,12.07
2018-07-12T05:31:56.050Z,13.23
2018-07-12T05:34:23.257Z,14.70
2018-07-12T05:36:56.913Z,12.30
2018-07-12T05:39:25.374Z,16.50
2018-07-12T05:41:53.585Z,9.03
2018-07-12T05:44:21.849Z,8.53
2018-07-12T05:46:50.663Z,9.47
2018-07-12T05:49:19.128Z,8.77
2018-07-12T05:51:49.465Z,8.20
2018-07-12T05:54:19.761Z,9.77
2018-07-12T05:56:48.245Z,8.73
2018-07-12T05:59:16.813Z,9.00
2018-07-12T06:01:56.509Z,9.53
2018-07-12T06:04:24.781Z,7.50
2018-07-12T06:06:53.090Z,16.37
2018-07-12T06:09:21.411Z,15.90
2018-07-12T06:11:49.727Z,9.60
2018-07-12T06:14:18.009Z,8.27
2018-07-12T06:16:46.304Z,11.83
2018-07-12T06:19:14.587Z,7.70
2018-07-12T06:21:42.962Z,11.87
2018-07-12T06:24:11.245Z,11.13
2018-07-12T06:26:39.557Z,7.73
2018-07-12T06:29:07.870Z,9.03
2018-07-12T06:31:36.191Z,6.50
2018-07-12T06:34:04.509Z,8.63
2018-07-12T06:36:32.833Z,6.50
2018-07-12T06:39:01.119Z,8.23
2018-07-12T06:41:29.529Z,7.40
2018-07-12T06:43:57.806Z,6.87
2018-07-12T06:46:26.125Z,6.60
2018-07-12T06:48:54.406Z,7.63
2018-07-12T06:51:22.745Z,6.10
2018-07-12T06:53:50.984Z,10.23
2018-07-12T06:56:19.337Z,7.17
2018-07-12T06:58:47.689Z,6.57
2018-07-12T07:01:17.037Z,10.00
2018-07-12T07:03:45.391Z,7.73
2018-07-12T07:06:13.786Z,8.07
2018-07-12T07:08:42.106Z,10.50
2018-07-12T07:11:10.421Z,12.73
2018-07-12T07:13:38.987Z,10.33
2018-07-12T07:16:07.924Z,17.73
2018-07-12T07:18:36.245Z,11.03
2018-07-12T07:21:05.586Z,9.13
2018-07-12T07:23:33.894Z,11.63
2018-07-12T07:26:02.162Z,8.20
2018-07-12T07:28:31.650Z,12.73
2018-07-12T07:30:59.934Z,9.63
2018-07-12T07:33:28.234Z,6.60
2018-07-12T07:35:56.593Z,7.07
2018-07-12T07:38:26.002Z,7.00
2018-07-12T07:40:54.310Z,6.70
2018-07-12T07:43:22.971Z,11.53
2018-07-12T07:45:51.217Z,14.60
2018-07-12T07:48:19.761Z,6.30
2018-07-12T07:50:48.061Z,5.80
2018-07-12T07:53:16.357Z,7.10
2018-07-12T07:55:44.699Z,13.07
2018-07-12T07:58:12.978Z,6.07
2018-07-12T08:00:41.301Z,9.00
2018-07-12T08:03:09.634Z,10.43
2018-07-12T08:05:37.947Z,6.30
2018-07-12T08:08:06.469Z,7.17
2018-07-12T08:10:34.783Z,8.30
2018-07-12T08:13:03.091Z,6.50
2018-07-12T08:15:31.402Z,5.97
2018-07-12T08:17:59.697Z,12.10
2018-07-12T08:20:28.031Z,5.63
2018-07-12T08:22:56.316Z,8.93
2018-07-12T08:25:24.623Z,9.50
2018-07-12T08:28:04.017Z,7.00
2018-07-12T08:30:32.339Z,6.90
2018-07-12T08:33:00.733Z,8.13
2018-07-12T08:35:29.150Z,15.13
2018-07-12T08:37:57.425Z,6.37
2018-07-12T08:40:25.844Z,9.73
2018-07-12T08:42:54.270Z,10.00
2018-07-12T08:45:22.619Z,5.13
2018-07-12T08:47:50.897Z,6.93
2018-07-12T08:50:19.261Z,6.70
2018-07-12T08:52:47.563Z,5.33
2018-07-12T08:55:15.844Z,6.00
2018-07-12T08:57:44.206Z,7.47
2018-07-12T09:00:12.526Z,6.60
2018-07-12T09:02:41.098Z,10.03
2018-07-12T09:05:09.371Z,4.97
2018-07-12T09:07:37.694Z,5.70
2018-07-12T09:10:06.096Z,5.20
2018-07-12T09:12:34.425Z,7.23
2018-07-12T09:15:02.727Z,6.30
2018-07-12T09:17:31.025Z,5.30
2018-07-12T09:19:59.321Z,7.43
2018-07-12T09:22:27.654Z,6.17
2018-07-12T09:24:55.925Z,9.33
2018-07-12T09:27:25.277Z,5.03
2018-07-12T09:29:53.543Z,9.70
2018-07-12T09:32:22.838Z,4.90
2018-07-12T09:37:41.903Z,3.90
2018-07-12T09:43:00.695Z,6.67
2018-07-12T09:45:28.943Z,7.27
2018-07-12T09:47:57.249Z,5.63
2018-07-12T09:50:25.654Z,4.47
2018-07-12T09:52:53.984Z,4.23
2018-07-12T09:55:22.286Z,4.87
2018-07-12T09:58:01.999Z,11.30
2018-07-12T10:00:35.719Z,4.40
2018-07-12T10:03:20.975Z,3.87
2018-07-12T10:05:55.593Z,7.10
2018-07-12T10:08:29.093Z,4.50
2018-07-12T10:11:02.521Z,4.20
2018-07-12T10:13:36.252Z,3.70
2018-07-12T10:16:08.704Z,5.00
2018-07-12T10:18:36.977Z,5.37
2018-07-12T10:21:05.241Z,4.20
2018-07-12T10:23:33.554Z,4.90
2018-07-12T10:26:02.926Z,5.90
2018-07-12T10:28:31.274Z,5.77
2018-07-12T10:30:59.561Z,2.90
2018-07-12T10:33:27.821Z,3.50
2018-07-12T10:35:56.109Z,7.13
2018-07-12T10:38:24.477Z,3.40
2018-07-12T10:40:52.811Z,4.07
2018-07-12T10:43:21.141Z,3.20
2018-07-12T10:45:50.477Z,4.07
2018-07-12T10:48:18.729Z,3.87
2018-07-12T10:50:47.041Z,4.90
2018-07-12T10:53:15.299Z,4.30
2018-07-12T10:55:43.667Z,3.70
2018-07-12T10:58:12.052Z,4.47
2018-07-12T11:00:40.352Z,3.77
2018-07-12T11:03:08.659Z,4.47
2018-07-12T11:05:36.989Z,4.40
2018-07-12T11:08:05.546Z,9.43
2018-07-12T11:10:33.925Z,5.23
2018-07-12T11:13:12.672Z,4.90
2018-07-12T11:15:40.961Z,4.00
2018-07-12T11:18:09.266Z,7.40
2018-07-12T11:20:37.557Z,5.33
2018-07-12T11:23:06.066Z,4.50
2018-07-12T11:25:35.368Z,4.50
2018-07-12T11:28:04.098Z,5.13
2018-07-12T11:30:32.670Z,4.30
2018-07-12T11:33:02.214Z,5.73
2018-07-12T11:35:30.589Z,3.33
2018-07-12T11:37:58.873Z,3.93
2018-07-12T11:40:27.117Z,5.20
2018-07-12T11:42:55.401Z,5.67
2018-07-12T11:45:23.638Z,3.57
2018-07-12T11:47:51.905Z,3.37
2018-07-12T11:50:20.165Z,4.50
2018-07-12T11:52:48.505Z,5.87
2018-07-12T11:55:20.789Z,5.67
2018-07-12T11:57:49.078Z,4.20
2018-07-12T12:00:17.333Z,13.40
2018-07-12T12:02:45.609Z,3.63
2018-07-12T12:05:13.873Z,4.00
2018-07-12T12:07:42.157Z,3.67
2018-07-12T12:10:10.435Z,7.90
2018-07-12T12:12:38.748Z,3.50
2018-07-12T12:15:07.000Z,3.57
2018-07-12T12:17:35.296Z,3.70
2018-07-12T12:20:03.605Z,3.33
2018-07-12T12:22:31.854Z,3.53
2018-07-12T12:25:00.160Z,3.50
2018-07-12T12:27:28.415Z,3.20
2018-07-12T12:29:56.789Z,3.67
2018-07-12T12:32:25.069Z,3.90
2018-07-12T12:34:53.377Z,3.90
2018-07-12T12:37:21.681Z,6.40
2018-07-12T12:39:49.988Z,7.70
2018-07-12T12:42:18.233Z,5.93
2018-07-12T12:44:46.514Z,7.87
2018-07-12T12:47:14.793Z,4.20
2018-07-12T12:49:43.077Z,3.47
2018-07-12T12:52:12.921Z,3.40
2018-07-12T12:54:41.293Z,2.80
2018-07-12T12:57:09.600Z,2.80
2018-07-12T12:59:37.998Z,3.53
2018-07-12T13:02:07.284Z,5.40
2018-07-12T13:04:35.577Z,3.50
2018-07-12T13:07:03.897Z,3.77
2018-07-12T13:09:32.240Z,4.67
2018-07-12T13:12:00.557Z,3.13
2018-07-12T13:14:28.893Z,3.00
2018-07-12T13:16:57.140Z,3.33
2018-07-12T13:19:26.540Z,3.60
2018-07-12T13:21:58.826Z,4.77
2018-07-12T13:24:27.081Z,5.20
2018-07-12T13:26:55.378Z,3.07
2018-07-12T13:29:27.282Z,4.90
2018-07-12T13:31:55.630Z,3.20
2018-07-12T13:34:23.924Z,5.63
2018-07-12T13:36:53.261Z,3.57
2018-07-12T13:39:21.521Z,3.67
2018-07-12T13:41:49.880Z,4.30
2018-07-12T13:44:21.367Z,3.90
2018-07-12T13:46:50.940Z,4.30
2018-07-12T13:49:19.157Z,6.40
2018-07-12T13:51:49.497Z,5.20
2018-07-12T13:54:18.486Z,4.33
2018-07-12T13:56:47.277Z,5.70
2018-07-12T13:59:15.549Z,5.17
2018-07-12T14:01:43.866Z,5.20
2018-07-12T14:04:12.593Z,6.33
2018-07-12T14:06:40.921Z,5.60
2018-07-12T14:09:11.086Z,5.20
2018-07-12T14:11:39.705Z,6.67
2018-07-12T14:14:08.605Z,3.60
2018-07-12T14:16:37.966Z,4.43
2018-07-12T14:19:06.379Z,3.70
2018-07-12T14:21:34.642Z,8.53
2018-07-12T14:24:02.936Z,4.83
2018-07-12T14:26:31.237Z,6.67
2018-07-12T14:28:59.634Z,4.90
2018-07-12T14:31:27.893Z,5.90
2018-07-12T14:33:57.301Z,4.20
2018-07-12T14:36:25.569Z,3.43
2018-07-12T14:38:53.873Z,5.93
2018-07-12T14:41:22.153Z,3.20
2018-07-12T14:43:50.714Z,4.70
2018-07-12T14:46:18.973Z,3.20
2018-07-12T14:48:47.268Z,4.70
2018-07-12T14:51:17.625Z,2.60
2018-07-12T14:53:45.936Z,3.03
2018-07-12T14:56:14.213Z,2.53
2018-07-12T14:58:42.666Z,3.73
2018-07-12T15:01:10.933Z,2.70
2018-07-12T15:03:40.529Z,4.70
2018-07-12T15:06:08.799Z,2.70
2018-07-12T15:08:37.061Z,3.20
2018-07-12T15:11:05.393Z,3.30
2018-07-12T15:13:33.785Z,2.80
2018-07-12T15:16:03.157Z,2.83
2018-07-12T15:18:31.455Z,3.03
2018-07-12T15:21:00.846Z,3.37
2018-07-12T15:23:29.117Z,3.30
2018-07-12T15:25:57.516Z,4.60
2018-07-12T15:28:25.803Z,3.50
2018-07-12T15:30:54.131Z,3.37
2018-07-12T15:33:22.417Z,3.95
2018-07-12T15:35:50.709Z,6.70
2018-07-12T15:38:18.961Z,3.33
2018-07-12T15:40:48.385Z,4.93
2018-07-12T15:43:16.641Z,4.43
2018-07-12T15:45:45.021Z,3.20
2018-07-12T15:48:13.289Z,12.13
2018-07-12T15:50:42.605Z,13.50
2018-07-12T15:53:10.987Z,3.30
2018-07-12T15:55:39.216Z,4.37
2018-07-12T15:58:07.506Z,3.63
2018-07-12T16:00:36.821Z,3.80
2018-07-12T16:03:05.090Z,4.93
2018-07-12T16:05:34.353Z,3.90
2018-07-12T16:08:02.643Z,5.70
2018-07-12T16:10:30.903Z,3.73
2018-07-12T16:12:59.205Z,6.90
2018-07-12T16:15:27.485Z,5.93
2018-07-12T16:17:55.795Z,5.73
2018-07-12T16:20:24.134Z,3.70
2018-07-12T16:22:52.481Z,3.87
2018-07-12T16:25:20.989Z,4.77
2018-07-12T16:27:53.076Z,4.00
2018-07-12T16:30:23.376Z,4.20
2018-07-12T16:32:51.658Z,3.40
2018-07-12T16:35:19.908Z,3.70
2018-07-12T16:37:48.217Z,4.80
2018-07-12T16:40:16.574Z,4.83
2018-07-12T16:42:44.854Z,5.60
2018-07-12T16:45:13.368Z,6.50
2018-07-12T16:47:41.705Z,3.53
2018-07-12T16:50:09.977Z,9.30
2018-07-12T16:52:38.272Z,7.03
2018-07-12T16:55:06.544Z,3.80
2018-07-12T16:57:34.857Z,3.90
2018-07-12T17:00:03.298Z,3.50
2018-07-12T17:02:31.555Z,7.30
2018-07-12T17:04:59.861Z,4.07
2018-07-12T17:07:28.137Z,6.07
2018-07-12T17:09:56.476Z,3.83
2018-07-12T17:12:24.741Z,4.50
2018-07-12T17:14:53.086Z,4.53
2018-07-12T17:17:21.341Z,3.37
2018-07-12T17:19:49.710Z,4.60
2018-07-12T17:22:18.017Z,6.63
2018-07-12T17:24:47.314Z,3.90
2018-07-12T17:27:15.576Z,4.70
2018-07-12T17:29:43.852Z,5.53
2018-07-12T17:32:12.209Z,15.73
2018-07-12T17:34:40.498Z,3.80
2018-07-12T17:37:08.761Z,4.47
2018-07-12T17:39:37.058Z,4.87
2018-07-12T17:42:05.312Z,5.30
2018-07-12T17:44:33.605Z,5.80
2018-07-12T17:47:03.915Z,4.23
2018-07-12T17:49:32.232Z,4.47
2018-07-12T17:52:00.522Z,13.23
2018-07-12T17:54:28.794Z,7.67
2018-07-12T17:56:57.065Z,5.43
2018-07-12T17:59:25.317Z,5.73
2018-07-12T18:01:53.586Z,5.27
2018-07-12T18:04:21.886Z,10.43
2018-07-12T18:06:50.161Z,7.70
2018-07-12T18:09:18.405Z,6.23
2018-07-12T18:11:47.829Z,8.40
2018-07-12T18:14:16.136Z,5.73
2018-07-12T18:16:44.395Z,7.83
2018-07-12T18:19:12.840Z,6.13
2018-07-12T18:21:41.126Z,5.83
2018-07-12T18:24:10.454Z,9.27
2018-07-12T18:26:38.763Z,8.83
2018-07-12T18:29:07.019Z,9.03
2018-07-12T18:31:35.320Z,6.07
2018-07-12T18:34:03.629Z,4.43
2018-07-12T18:36:31.985Z,5.00
2018-07-12T18:39:00.237Z,6.93
2018-07-12T18:41:28.545Z,13.93
2018-07-12T18:43:56.833Z,10.00
2018-07-12T18:46:25.089Z,5.07
2018-07-12T18:48:53.409Z,6.33
2018-07-12T18:51:21.727Z,6.57
2018-07-12T18:53:51.028Z,6.30
2018-07-12T18:56:19.313Z,5.57
2018-07-12T18:58:47.598Z,5.53
2018-07-12T19:01:15.907Z,7.00
2018-07-12T19:03:45.466Z,10.63
2018-07-12T19:06:13.749Z,6.03
2018-07-12T19:08:47.842Z,10.83
2018-07-12T19:11:16.205Z,8.23
2018-07-12T19:13:44.808Z,8.70
2018-07-12T19:16:13.127Z,7.53
2018-07-12T19:18:42.466Z,10.60
2018-07-12T19:21:10.738Z,7.80
2018-07-12T19:23:39.039Z,6.40
2018-07-12T19:26:07.297Z,9.23
2018-07-12T19:28:35.596Z,9.33
2018-07-12T19:31:04.058Z,13.60
2018-07-12T19:33:34.524Z,7.93
2018-07-12T19:36:02.854Z,9.07
2018-07-12T19:38:31.421Z,8.20
2018-07-12T19:41:01.042Z,10.67
2018-07-12T19:43:29.300Z,12.33
2018-07-12T19:45:57.577Z,17.43
2018-07-12T19:48:25.838Z,14.67
2018-07-12T19:50:55.261Z,14.07
2018-07-12T19:53:23.537Z,9.33
2018-07-12T19:55:51.817Z,16.10
2018-07-12T19:58:20.066Z,13.13
2018-07-12T20:00:48.336Z,14.63
2018-07-12T20:03:17.661Z,16.47
2018-07-12T20:05:45.941Z,11.40
2018-07-12T20:08:14.308Z,16.80
2018-07-12T20:10:42.590Z,18.63
2018-07-12T20:13:10.879Z,14.20
2018-07-12T20:15:39.253Z,17.03
2018-07-12T20:18:07.673Z,22.37
2018-07-12T20:20:38.154Z,16.17
2018-07-12T20:23:06.424Z,14.63
2018-07-12T20:25:34.721Z,14.00
2018-07-12T20:28:03.061Z,17.53
2018-07-12T20:30:31.614Z,16.70
2018-07-12T20:33:00.965Z,19.10
2018-07-12T20:35:29.265Z,26.73
2018-07-12T20:37:57.542Z,17.80
2018-07-12T20:40:25.813Z,19.23
2018-07-12T20:42:54.074Z,19.07
2018-07-12T20:45:22.394Z,19.33
2018-07-12T20:47:51.737Z,21.03
2018-07-12T20:50:20.059Z,17.27
2018-07-12T20:52:48.405Z,23.73
2018-07-12T20:55:16.707Z,20.17
2018-07-12T20:57:45.993Z,16.80
2018-07-12T21:00:14.261Z,29.97
2018-07-12T21:02:42.565Z,25.50
2018-07-12T21:05:10.860Z,18.03
2018-07-12T21:07:39.206Z,19.67
2018-07-12T21:10:07.808Z,24.07
2018-07-12T21:12:36.100Z,21.13
2018-07-12T21:15:04.501Z,23.33
2018-07-12T21:17:32.798Z,23.70
2018-07-12T21:20:01.072Z,29.10
2018-07-12T21:22:29.356Z,30.27
2018-07-12T21:24:57.629Z,18.60
2018-07-12T21:27:25.925Z,21.03
2018-07-12T21:29:54.178Z,21.67
2018-07-12T21:32:22.487Z,32.87
2018-07-12T21:34:50.749Z,18.53
2018-07-12T21:37:19.005Z,23.57
2018-07-12T21:39:47.296Z,34.20
2018-07-12T21:42:15.593Z,27.77
2018-07-12T21:44:43.869Z,26.67
2018-07-12T21:47:12.148Z,22.03
2018-07-12T21:49:40.417Z,29.50
2018-07-12T21:52:08.717Z,26.40
2018-07-12T21:54:38.068Z,28.00
2018-07-12T21:57:06.349Z,24.67
2018-07-12T21:59:35.649Z,27.23
2018-07-12T22:02:04.014Z,21.67
2018-07-12T22:04:33.437Z,25.97
2018-07-12T22:08:18.527Z,28.23
2018-07-12T22:10:47.869Z,29.30
2018-07-12T22:13:16.840Z,34.30
2018-07-12T22:15:45.154Z,34.80
2018-07-12T22:18:13.525Z,28.77
2018-07-12T22:20:41.845Z,27.83
2018-07-12T22:23:10.084Z,40.00
2018-07-12T22:25:38.496Z,30.43
2018-07-12T22:28:06.969Z,37.40
2018-07-12T22:30:35.465Z,40.10
2018-07-12T22:33:04.252Z,32.97
2018-07-12T22:35:32.537Z,31.37
2018-07-12T22:38:01.829Z,34.10
2018-07-12T22:40:30.341Z,37.17
2018-07-12T22:42:58.793Z,38.27
2018-07-12T22:45:27.117Z,34.90
2018-07-12T22:47:57.053Z,37.30
2018-07-12T22:50:26.431Z,44.37
2018-07-12T22:52:54.749Z,49.87
2018-07-12T22:55:23.142Z,36.10
2018-07-12T22:57:51.412Z,42.40
2018-07-12T23:00:19.659Z,29.37
2018-07-12T23:02:47.938Z,38.17
2018-07-12T23:05:17.363Z,30.03
2018-07-12T23:07:45.638Z,36.50
2018-07-12T23:10:13.894Z,43.67
2018-07-12T23:12:42.389Z,40.80
2018-07-12T23:15:10.673Z,29.13
2018-07-12T23:17:38.954Z,41.30
2018-07-12T23:20:07.235Z,37.40
2018-07-12T23:22:35.554Z,32.77
2018-07-12T23:25:05.905Z,43.00
2018-07-12T23:27:34.222Z,40.50
2018-07-12T23:30:03.626Z,40.80
2018-07-12T23:32:31.911Z,34.10
2018-07-12T23:35:00.210Z,37.43
2018-07-12T23:37:29.565Z,48.03
2018-07-12T23:39:57.884Z,37.23
2018-07-12T23:42:26.165Z,37.93
2018-07-12T23:44:54.473Z,33.50
2018-07-12T23:47:22.769Z,39.30
2018-07-12T23:49:51.063Z,39.13
2018-07-12T23:52:19.340Z,36.20
2018-07-12T23:54:47.625Z,42.67
2018-07-12T23:57:15.878Z,43.17
2018-07-12T23:59:44.210Z,40.40
